createdAt,value
2022-08-25T00:00:17.452Z,1006.63
2022-08-25T00:02:55.589Z,1006.61
2022-08-25T00:05:23.458Z,1006.60
2022-08-25T00:08:00.267Z,1006.59
2022-08-25T00:10:33.418Z,1006.58
2022-08-25T00:13:06.474Z,1006.59
2022-08-25T00:15:39.500Z,1006.60
2022-08-25T00:18:19.886Z,1006.62
2022-08-25T00:20:49.069Z,1006.62
2022-08-25T00:23:18.397Z,1006.62
2022-08-25T00:25:51.410Z,1006.63
2022-08-25T00:28:24.396Z,1006.65
2022-08-25T00:30:57.461Z,1006.65
2022-08-25T00:33:30.486Z,1006.65
2022-08-25T00:36:03.416Z,1006.65
2022-08-25T00:38:36.481Z,1006.65
2022-08-25T00:41:09.496Z,1006.62
2022-08-25T00:43:42.473Z,1006.63
2022-08-25T00:46:15.646Z,1006.62
2022-08-25T00:48:48.449Z,1006.61
2022-08-25T00:51:21.521Z,1006.60
2022-08-25T00:53:54.256Z,1006.59
2022-08-25T00:56:28.528Z,1006.58
2022-08-25T00:59:01.452Z,1006.57
2022-08-25T01:01:34.572Z,1006.57
2022-08-25T01:04:07.527Z,1006.56
2022-08-25T01:06:40.544Z,1006.57
2022-08-25T01:09:13.578Z,1006.59
2022-08-25T01:11:46.531Z,1006.59
2022-08-25T01:14:19.558Z,1006.60
2022-08-25T01:16:53.950Z,1006.60
2022-08-25T01:19:25.480Z,1006.61
2022-08-25T01:21:58.516Z,1006.62
2022-08-25T01:24:31.257Z,1006.62
2022-08-25T01:27:04.558Z,1006.62
2022-08-25T01:29:37.590Z,1006.63
2022-08-25T01:32:10.572Z,1006.63
2022-08-25T01:34:43.551Z,1006.64
2022-08-25T01:37:16.558Z,1006.64
2022-08-25T01:39:49.662Z,1006.63
2022-08-25T01:42:22.532Z,1006.63
2022-08-25T01:44:55.604Z,1006.63
2022-08-25T01:47:28.517Z,1006.64
2022-08-25T01:50:01.645Z,1006.66
2022-08-25T01:52:34.533Z,1006.66
2022-08-25T01:55:07.657Z,1006.69
2022-08-25T01:57:40.577Z,1006.69
2022-08-25T02:00:13.593Z,1006.70
2022-08-25T02:02:46.599Z,1006.70
2022-08-25T02:05:23.307Z,1006.69
2022-08-25T02:07:52.580Z,1006.69
2022-08-25T02:10:25.621Z,1006.70
2022-08-25T02:12:58.624Z,1006.71
2022-08-25T02:15:31.683Z,1006.70
2022-08-25T02:18:04.802Z,1006.71
2022-08-25T02:20:37.424Z,1006.72
2022-08-25T02:23:10.613Z,1006.70
2022-08-25T02:25:43.557Z,1006.69
2022-08-25T02:28:16.521Z,1006.68
2022-08-25T02:30:49.683Z,1006.66
2022-08-25T02:33:22.669Z,1006.64
2022-08-25T02:35:55.671Z,1006.62
2022-08-25T02:38:28.663Z,1006.62
2022-08-25T02:41:01.603Z,1006.63
2022-08-25T02:43:34.662Z,1006.62
2022-08-25T02:46:07.804Z,1006.60
2022-08-25T02:48:40.736Z,1006.60
2022-08-25T02:51:13.595Z,1006.60
2022-08-25T02:53:46.690Z,1006.60
2022-08-25T02:56:19.676Z,1006.58
2022-08-25T02:58:52.633Z,1006.57
2022-08-25T03:01:28.578Z,1006.55
2022-08-25T03:03:58.699Z,1006.55
2022-08-25T03:06:31.724Z,1006.53
2022-08-25T03:09:04.708Z,1006.53
2022-08-25T03:11:37.701Z,1006.52
2022-08-25T03:14:10.720Z,1006.53
2022-08-25T03:16:43.728Z,1006.53
2022-08-25T03:19:16.765Z,1006.54
2022-08-25T03:21:49.720Z,1006.53
2022-08-25T03:24:22.646Z,1006.53
2022-08-25T03:26:55.729Z,1006.52
2022-08-25T03:29:28.685Z,1006.52
2022-08-25T03:32:01.874Z,1006.51
2022-08-25T03:34:34.755Z,1006.51
2022-08-25T03:37:07.689Z,1006.52
2022-08-25T03:39:40.759Z,1006.52
2022-08-25T03:42:13.738Z,1006.52
2022-08-25T03:44:46.730Z,1006.53
2022-08-25T03:47:19.672Z,1006.53
2022-08-25T03:49:52.706Z,1006.54
2022-08-25T03:52:25.768Z,1006.55
2022-08-25T03:54:58.769Z,1006.52
2022-08-25T03:57:31.725Z,1006.50
2022-08-25T04:00:04.533Z,1006.47
2022-08-25T04:02:37.847Z,1006.43
2022-08-25T04:05:10.805Z,1006.39
2022-08-25T04:07:43.732Z,1006.36
2022-08-25T04:10:16.780Z,1006.34
2022-08-25T04:12:49.821Z,1006.33
2022-08-25T04:15:22.759Z,1006.33
2022-08-25T04:17:55.739Z,1006.34
2022-08-25T04:20:28.789Z,1006.34
2022-08-25T04:23:01.775Z,1006.33
2022-08-25T04:25:34.585Z,1006.34
2022-08-25T04:28:07.745Z,1006.35
2022-08-25T04:30:40.609Z,1006.35
2022-08-25T04:33:13.652Z,1006.34
2022-08-25T04:35:46.472Z,1006.35
2022-08-25T04:38:19.839Z,1006.36
2022-08-25T04:40:52.605Z,1006.38
2022-08-25T04:43:25.523Z,1006.40
2022-08-25T04:45:58.946Z,1006.43
2022-08-25T04:48:31.943Z,1006.44
2022-08-25T04:51:05.868Z,1006.46
2022-08-25T04:53:38.538Z,1006.46
2022-08-25T04:56:11.833Z,1006.47
2022-08-25T04:58:44.904Z,1006.47
2022-08-25T05:01:17.944Z,1006.46
2022-08-25T05:03:50.850Z,1006.45
2022-08-25T05:06:23.857Z,1006.44
2022-08-25T05:08:56.791Z,1006.42
2022-08-25T05:11:29.925Z,1006.40
2022-08-25T05:14:02.793Z,1006.37
2022-08-25T05:16:35.888Z,1006.35
2022-08-25T05:19:08.839Z,1006.36
2022-08-25T05:21:41.838Z,1006.38
2022-08-25T05:24:17.522Z,1006.38
2022-08-25T05:26:50.863Z,1006.39
2022-08-25T05:29:23.897Z,1006.39
2022-08-25T05:31:56.965Z,1006.37
2022-08-25T05:34:29.934Z,1006.34
2022-08-25T05:37:02.870Z,1006.31
2022-08-25T05:39:35.564Z,1006.28
2022-08-25T05:42:08.559Z,1006.26
2022-08-25T05:44:41.875Z,1006.26
2022-08-25T05:47:14.919Z,1006.27
2022-08-25T05:49:47.832Z,1006.28
2022-08-25T05:52:20.944Z,1006.28
2022-08-25T05:54:53.887Z,1006.27
2022-08-25T05:57:26.774Z,1006.28
2022-08-25T05:59:59.932Z,1006.29
2022-08-25T06:02:32.818Z,1006.28
2022-08-25T06:05:05.828Z,1006.25
2022-08-25T06:07:38.925Z,1006.22
2022-08-25T06:10:11.938Z,1006.21
2022-08-25T06:12:44.732Z,1006.19
2022-08-25T06:15:17.606Z,1006.19
2022-08-25T06:17:50.800Z,1006.18
2022-08-25T06:20:25.375Z,1006.18
2022-08-25T06:22:57.035Z,1006.17
2022-08-25T06:25:29.614Z,1006.16
2022-08-25T06:28:02.958Z,1006.18
2022-08-25T06:30:35.633Z,1006.16
2022-08-25T06:33:08.642Z,1006.15
2022-08-25T06:35:41.662Z,1006.15
2022-08-25T06:38:14.801Z,1006.14
2022-08-25T06:40:47.862Z,1006.14
2022-08-25T06:43:20.673Z,1006.12
2022-08-25T06:45:53.735Z,1006.11
2022-08-25T06:48:26.789Z,1006.12
2022-08-25T06:50:59.773Z,1006.11
2022-08-25T06:53:32.665Z,1006.11
2022-08-25T06:56:06.763Z,1006.09
2022-08-25T06:58:38.696Z,1006.09
2022-08-25T07:01:15.935Z,1006.07
2022-08-25T07:03:44.845Z,1006.06
2022-08-25T07:06:18.622Z,1006.06
2022-08-25T07:08:50.842Z,1006.06
2022-08-25T07:11:23.698Z,1006.06
2022-08-25T07:13:56.766Z,1006.05
2022-08-25T07:16:31.087Z,1006.04
2022-08-25T07:19:02.715Z,1006.02
2022-08-25T07:21:35.967Z,1006.00
2022-08-25T07:24:08.703Z,1005.97
2022-08-25T07:26:41.710Z,1005.94
2022-08-25T07:29:18.548Z,1005.93
2022-08-25T07:31:51.959Z,1005.92
2022-08-25T07:34:25.498Z,1005.91
2022-08-25T07:36:57.876Z,1005.90
2022-08-25T07:39:30.864Z,1005.87
2022-08-25T07:42:03.751Z,1005.85
2022-08-25T07:44:36.735Z,1005.83
2022-08-25T07:47:09.758Z,1005.82
2022-08-25T07:49:42.772Z,1005.82
2022-08-25T07:52:15.815Z,1005.83
2022-08-25T07:54:48.807Z,1005.84
2022-08-25T07:57:21.767Z,1005.84
2022-08-25T07:59:54.905Z,1005.84
2022-08-25T08:02:27.995Z,1005.83
2022-08-25T08:05:00.927Z,1005.81
2022-08-25T08:07:43.838Z,1005.81
2022-08-25T08:10:37.054Z,1005.82
2022-08-25T08:12:39.802Z,1005.84
2022-08-25T08:15:12.808Z,1005.85
2022-08-25T08:17:45.923Z,1005.87
2022-08-25T08:20:23.305Z,1005.88
2022-08-25T08:22:51.858Z,1005.89
2022-08-25T08:25:27.176Z,1005.87
2022-08-25T08:27:58.105Z,1005.88
2022-08-25T08:30:30.800Z,1005.87
2022-08-25T08:33:11.310Z,1005.86
2022-08-25T08:35:36.825Z,1005.86
2022-08-25T08:38:14.887Z,1005.84
2022-08-25T08:40:42.827Z,1005.84
2022-08-25T08:43:18.319Z,1005.85
2022-08-25T08:45:49.114Z,1005.85
2022-08-25T08:48:21.881Z,1005.86
2022-08-25T08:50:55.040Z,1005.86
2022-08-25T08:53:27.940Z,1005.87
2022-08-25T08:56:00.870Z,1005.84
2022-08-25T08:58:33.848Z,1005.83
2022-08-25T09:01:06.863Z,1005.80
2022-08-25T09:03:40.020Z,1005.78
2022-08-25T09:06:12.851Z,1005.75
2022-08-25T09:08:46.025Z,1005.74
2022-08-25T09:11:19.033Z,1005.73
2022-08-25T09:13:51.889Z,1005.71
2022-08-25T09:16:34.122Z,1005.70
2022-08-25T09:18:58.374Z,1005.68
2022-08-25T09:21:31.861Z,1005.69
2022-08-25T09:24:05.041Z,1005.66
2022-08-25T09:26:37.871Z,1005.65
2022-08-25T09:29:16.571Z,1005.63
2022-08-25T09:31:45.175Z,1005.61
2022-08-25T09:34:17.890Z,1005.58
2022-08-25T09:36:50.891Z,1005.54
2022-08-25T09:39:23.911Z,1005.52
2022-08-25T09:41:57.065Z,1005.48
2022-08-25T09:44:30.321Z,1005.44
2022-08-25T09:47:02.915Z,1005.40
2022-08-25T09:49:35.921Z,1005.36
2022-08-25T09:52:09.261Z,1005.32
2022-08-25T09:54:47.002Z,1005.29
2022-08-25T09:57:16.080Z,1005.25
2022-08-25T09:59:57.614Z,1005.22
2022-08-25T10:02:28.261Z,1005.17
2022-08-25T10:05:00.972Z,1005.13
2022-08-25T10:07:33.932Z,1005.09
2022-08-25T10:10:07.066Z,1005.08
2022-08-25T10:12:42.357Z,1005.06
2022-08-25T10:15:12.992Z,1005.03
2022-08-25T10:17:46.309Z,1004.98
2022-08-25T10:20:19.219Z,1004.94
2022-08-25T10:22:51.993Z,1004.90
2022-08-25T10:25:24.971Z,1004.87
2022-08-25T10:27:58.144Z,1004.83
2022-08-25T10:30:30.996Z,1004.80
2022-08-25T10:33:04.108Z,1004.80
2022-08-25T10:35:37.011Z,1004.78
2022-08-25T10:38:10.017Z,1004.74
2022-08-25T10:40:43.006Z,1004.71
2022-08-25T10:43:16.044Z,1004.69
2022-08-25T10:45:49.166Z,1004.66
2022-08-25T10:48:22.307Z,1004.65
2022-08-25T10:50:55.109Z,1004.64
2022-08-25T10:53:28.298Z,1004.61
2022-08-25T10:56:01.351Z,1004.59
2022-08-25T10:58:34.328Z,1004.57
2022-08-25T11:01:07.370Z,1004.55
2022-08-25T11:03:40.017Z,1004.53
2022-08-25T11:06:13.019Z,1004.52
2022-08-25T11:08:46.184Z,1004.49
2022-08-25T11:11:19.022Z,1004.46
2022-08-25T11:13:52.211Z,1004.44
2022-08-25T11:16:25.061Z,1004.41
2022-08-25T11:18:58.041Z,1004.39
2022-08-25T11:21:31.210Z,1004.35
2022-08-25T11:24:04.091Z,1004.33
2022-08-25T11:26:37.448Z,1004.31
2022-08-25T11:29:12.067Z,1004.29
2022-08-25T11:31:43.092Z,1004.26
2022-08-25T11:34:16.205Z,1004.23
2022-08-25T11:36:49.086Z,1004.20
2022-08-25T11:39:22.091Z,1004.18
2022-08-25T11:41:55.334Z,1004.17
2022-08-25T11:44:28.396Z,1004.14
2022-08-25T11:47:01.370Z,1004.12
2022-08-25T11:49:34.111Z,1004.13
2022-08-25T11:52:07.093Z,1004.12
2022-08-25T11:54:41.711Z,1004.11
2022-08-25T11:57:13.199Z,1004.09
2022-08-25T11:59:46.262Z,1004.06
2022-08-25T12:02:19.084Z,1004.04
2022-08-25T12:04:53.091Z,1004.01
2022-08-25T12:07:25.092Z,1003.98
2022-08-25T12:09:58.123Z,1003.99
2022-08-25T12:12:31.354Z,1003.98
2022-08-25T12:15:04.146Z,1003.95
2022-08-25T12:17:37.312Z,1003.94
2022-08-25T12:20:10.383Z,1003.91
2022-08-25T12:22:43.377Z,1003.89
2022-08-25T12:25:16.253Z,1003.89
2022-08-25T12:27:49.239Z,1003.87
2022-08-25T12:30:22.435Z,1003.85
2022-08-25T12:32:55.477Z,1003.83
2022-08-25T12:35:29.539Z,1003.81
2022-08-25T12:38:01.477Z,1003.78
2022-08-25T12:40:34.180Z,1003.76
2022-08-25T12:43:07.319Z,1003.75
2022-08-25T12:45:40.476Z,1003.73
2022-08-25T12:48:13.457Z,1003.72
2022-08-25T12:50:46.499Z,1003.70
2022-08-25T12:53:19.456Z,1003.68
2022-08-25T12:55:52.533Z,1003.65
2022-08-25T12:58:31.191Z,1003.63
2022-08-25T13:01:00.955Z,1003.63
2022-08-25T13:03:31.594Z,1003.62
2022-08-25T13:06:04.214Z,1003.62
2022-08-25T13:08:37.186Z,1003.60
2022-08-25T13:11:10.197Z,1003.58
2022-08-25T13:13:43.309Z,1003.57
2022-08-25T13:16:16.297Z,1003.55
2022-08-25T13:18:51.640Z,1003.53
2022-08-25T13:21:22.475Z,1003.49
2022-08-25T13:24:04.849Z,1003.45
2022-08-25T13:26:28.577Z,1003.41
2022-08-25T13:29:02.065Z,1003.38
2022-08-25T13:31:34.576Z,1003.36
2022-08-25T13:34:07.514Z,1003.33
2022-08-25T13:36:43.456Z,1003.30
2022-08-25T13:39:13.497Z,1003.27
2022-08-25T13:41:46.534Z,1003.24
2022-08-25T13:44:19.540Z,1003.21
2022-08-25T13:46:52.607Z,1003.19
2022-08-25T13:49:25.542Z,1003.17
2022-08-25T13:51:58.515Z,1003.14
2022-08-25T13:54:31.619Z,1003.13
2022-08-25T13:57:04.509Z,1003.10
2022-08-25T13:59:40.236Z,1003.08
2022-08-25T14:02:19.245Z,1003.05
2022-08-25T14:04:51.482Z,1003.02
2022-08-25T14:07:19.511Z,1002.99
2022-08-25T14:09:49.604Z,1002.96
2022-08-25T14:12:22.661Z,1002.94
2022-08-25T14:14:55.627Z,1002.93
2022-08-25T14:17:39.129Z,1002.90
2022-08-25T14:20:01.482Z,1002.89
2022-08-25T14:22:34.282Z,1002.88
2022-08-25T14:25:07.323Z,1002.86
2022-08-25T14:27:56.937Z,1002.83
2022-08-25T14:30:13.329Z,1002.80
2022-08-25T14:32:46.357Z,1002.77
2022-08-25T14:35:19.318Z,1002.74
2022-08-25T14:37:52.715Z,1002.73
2022-08-25T14:40:25.433Z,1002.71
2022-08-25T14:42:58.478Z,1002.69
2022-08-25T14:45:31.619Z,1002.68
2022-08-25T14:48:04.390Z,1002.66
2022-08-25T14:50:37.331Z,1002.65
2022-08-25T14:53:10.641Z,1002.62
2022-08-25T14:55:43.567Z,1002.60
2022-08-25T14:58:16.341Z,1002.57
2022-08-25T15:00:49.595Z,1002.55
2022-08-25T15:03:22.345Z,1002.52
2022-08-25T15:05:55.763Z,1002.49
2022-08-25T15:08:32.903Z,1002.45
2022-08-25T15:11:01.459Z,1002.44
2022-08-25T15:13:34.376Z,1002.41
2022-08-25T15:16:07.389Z,1002.38
2022-08-25T15:18:40.367Z,1002.36
2022-08-25T15:21:13.523Z,1002.35
2022-08-25T15:23:46.548Z,1002.33
2022-08-25T15:26:19.392Z,1002.32
2022-08-25T15:28:52.457Z,1002.30
2022-08-25T15:31:25.447Z,1002.29
2022-08-25T15:33:58.416Z,1002.27
2022-08-25T15:36:31.463Z,1002.24
2022-08-25T15:39:04.704Z,1002.22
2022-08-25T15:41:37.683Z,1002.19
2022-08-25T15:44:10.402Z,1002.17
2022-08-25T15:46:47.032Z,1002.15
2022-08-25T15:49:20.730Z,1002.12
2022-08-25T15:51:49.693Z,1002.12
2022-08-25T15:54:22.454Z,1002.10
2022-08-25T15:56:55.546Z,1002.10
2022-08-25T15:59:28.657Z,1002.09
2022-08-25T16:02:01.512Z,1002.09
2022-08-25T16:04:34.448Z,1002.07
2022-08-25T16:07:07.609Z,1002.06
2022-08-25T16:09:40.476Z,1002.03
2022-08-25T16:12:13.519Z,1002.03
2022-08-25T16:14:46.442Z,1002.02
2022-08-25T16:17:19.489Z,1002.00
2022-08-25T16:19:52.621Z,1001.98
2022-08-25T16:22:39.424Z,1001.97
2022-08-25T16:25:12.495Z,1001.95
2022-08-25T16:27:45.840Z,1001.92
2022-08-25T16:30:18.472Z,1001.89
2022-08-25T16:32:51.633Z,1001.87
2022-08-25T16:35:24.501Z,1001.85
2022-08-25T16:37:57.518Z,1001.84
2022-08-25T16:40:30.657Z,1001.84
2022-08-25T16:43:03.498Z,1001.81
2022-08-25T16:45:36.493Z,1001.80
2022-08-25T16:48:09.541Z,1001.81
2022-08-25T16:50:42.574Z,1001.81
2022-08-25T16:53:15.590Z,1001.82
2022-08-25T16:56:02.491Z,1001.82
2022-08-25T16:58:35.507Z,1001.83
2022-08-25T17:01:09.555Z,1001.84
2022-08-25T17:03:44.098Z,1001.85
2022-08-25T17:06:15.216Z,1001.86
2022-08-25T17:08:47.564Z,1001.86
2022-08-25T17:11:20.552Z,1001.87
2022-08-25T17:13:53.868Z,1001.86
2022-08-25T17:16:27.092Z,1001.86
2022-08-25T17:19:00.918Z,1001.85
2022-08-25T17:21:33.841Z,1001.84
2022-08-25T17:24:06.853Z,1001.84
2022-08-25T17:26:39.826Z,1001.83
2022-08-25T17:29:12.777Z,1001.82
2022-08-25T17:31:45.979Z,1001.84
2022-08-25T17:34:23.270Z,1001.83
2022-08-25T17:36:51.776Z,1001.83
2022-08-25T17:39:24.573Z,1001.83
2022-08-25T17:41:57.732Z,1001.83
2022-08-25T17:44:30.716Z,1001.84
2022-08-25T17:47:03.694Z,1001.86
2022-08-25T17:49:36.584Z,1001.86
2022-08-25T17:52:09.590Z,1001.87
2022-08-25T17:54:42.598Z,1001.88
2022-08-25T17:57:15.818Z,1001.89
2022-08-25T17:59:48.784Z,1001.90
2022-08-25T18:02:21.615Z,1001.91
2022-08-25T18:04:54.653Z,1001.91
2022-08-25T18:07:27.974Z,1001.91
2022-08-25T18:10:00.726Z,1001.92
2022-08-25T18:12:33.913Z,1001.93
2022-08-25T18:15:06.933Z,1001.92
2022-08-25T18:17:39.727Z,1001.92
2022-08-25T18:20:12.666Z,1001.92
2022-08-25T18:22:45.842Z,1001.92
2022-08-25T18:25:21.540Z,1001.95
2022-08-25T18:27:54.997Z,1001.94
2022-08-25T18:30:27.664Z,1001.94
2022-08-25T18:33:01.073Z,1001.96
2022-08-25T18:35:33.910Z,1001.98
2022-08-25T18:38:07.242Z,1001.98
2022-08-25T18:40:39.654Z,1002.00
2022-08-25T18:43:12.800Z,1002.00
2022-08-25T18:45:45.942Z,1002.01
2022-08-25T18:48:18.978Z,1002.00
2022-08-25T18:50:52.028Z,1002.01
2022-08-25T18:53:30.106Z,1002.04
2022-08-25T18:55:58.028Z,1002.06
2022-08-25T18:58:30.698Z,1002.06
2022-08-25T19:01:03.798Z,1002.07
2022-08-25T19:03:36.738Z,1002.08
2022-08-25T19:06:09.744Z,1002.09
2022-08-25T19:08:42.736Z,1002.11
2022-08-25T19:11:16.053Z,1002.13
2022-08-25T19:13:48.788Z,1002.13
2022-08-25T19:16:22.073Z,1002.13
2022-08-25T19:18:55.094Z,1002.14
2022-08-25T19:21:27.870Z,1002.15
2022-08-25T19:24:00.829Z,1002.15
2022-08-25T19:26:33.887Z,1002.13
2022-08-25T19:29:06.924Z,1002.14
2022-08-25T19:31:40.082Z,1002.13
2022-08-25T19:34:13.229Z,1002.15
2022-08-25T19:36:46.905Z,1002.16
2022-08-25T19:39:19.753Z,1002.16
2022-08-25T19:41:53.033Z,1002.16
2022-08-25T19:44:25.754Z,1002.15
2022-08-25T19:47:13.270Z,1002.17
2022-08-25T19:49:45.929Z,1002.17
2022-08-25T19:52:18.753Z,1002.17
2022-08-25T19:54:51.843Z,1002.19
2022-08-25T19:57:27.907Z,1002.21
2022-08-25T19:59:58.135Z,1002.24
2022-08-25T20:02:30.908Z,1002.26
2022-08-25T20:05:03.919Z,1002.27
2022-08-25T20:07:36.924Z,1002.29
2022-08-25T20:10:09.804Z,1002.30
2022-08-25T20:12:42.988Z,1002.31
2022-08-25T20:15:16.598Z,1002.30
2022-08-25T20:17:48.934Z,1002.31
2022-08-25T20:20:22.020Z,1002.31
2022-08-25T20:22:54.936Z,1002.31
2022-08-25T20:25:27.806Z,1002.30
2022-08-25T20:28:00.806Z,1002.31
2022-08-25T20:30:33.844Z,1002.31
2022-08-25T20:33:07.155Z,1002.34
2022-08-25T20:35:39.857Z,1002.35
2022-08-25T20:38:12.876Z,1002.36
2022-08-25T20:40:45.987Z,1002.38
2022-08-25T20:43:19.115Z,1002.39
2022-08-25T20:45:52.096Z,1002.40
2022-08-25T20:48:24.971Z,1002.41
2022-08-25T20:50:58.082Z,1002.41
2022-08-25T20:53:33.955Z,1002.41
2022-08-25T20:56:07.250Z,1002.41
2022-08-25T20:58:40.677Z,1002.40
2022-08-25T21:01:12.959Z,1002.39
2022-08-25T21:03:46.253Z,1002.37
2022-08-25T21:06:18.877Z,1002.36
2022-08-25T21:08:52.014Z,1002.34
2022-08-25T21:11:28.178Z,1002.34
2022-08-25T21:14:01.016Z,1002.33
2022-08-25T21:16:34.219Z,1002.32
2022-08-25T21:19:08.879Z,1002.32
2022-08-25T21:21:41.202Z,1002.31
2022-08-25T21:24:14.273Z,1002.32
2022-08-25T21:26:48.576Z,1002.32
2022-08-25T21:29:20.196Z,1002.32
2022-08-25T21:31:52.922Z,1002.32
2022-08-25T21:34:26.344Z,1002.32
2022-08-25T21:37:00.415Z,1002.34
2022-08-25T21:39:33.257Z,1002.35
2022-08-25T21:42:05.968Z,1002.36
2022-08-25T21:44:39.085Z,1002.36
2022-08-25T21:47:12.214Z,1002.37
2022-08-25T21:49:44.923Z,1002.37
2022-08-25T21:52:18.252Z,1002.37
2022-08-25T21:54:51.231Z,1002.35
2022-08-25T21:57:24.261Z,1002.36
2022-08-25T21:59:58.111Z,1002.36
2022-08-25T22:02:31.286Z,1002.35
2022-08-25T22:05:04.308Z,1002.36
2022-08-25T22:07:40.402Z,1002.38
2022-08-25T22:10:16.442Z,1002.37
2022-08-25T22:12:43.316Z,1002.38
2022-08-25T22:15:16.346Z,1002.39
2022-08-25T22:17:49.313Z,1002.39
2022-08-25T22:20:22.278Z,1002.38
2022-08-25T22:22:56.341Z,1002.37
2022-08-25T22:25:29.280Z,1002.36
2022-08-25T22:28:02.331Z,1002.34
2022-08-25T22:30:35.082Z,1002.34
2022-08-25T22:33:09.056Z,1002.32
2022-08-25T22:35:41.358Z,1002.31
2022-08-25T22:38:14.325Z,1002.30
2022-08-25T22:40:47.356Z,1002.29
2022-08-25T22:43:20.267Z,1002.29
2022-08-25T22:45:53.473Z,1002.29
2022-08-25T22:48:26.372Z,1002.30
2022-08-25T22:50:59.339Z,1002.30
2022-08-25T22:53:32.198Z,1002.29
2022-08-25T22:56:05.282Z,1002.29
2022-08-25T22:58:38.366Z,1002.29
2022-08-25T23:01:11.336Z,1002.29
2022-08-25T23:03:44.668Z,1002.27
2022-08-25T23:06:22.125Z,1002.26
2022-08-25T23:08:50.380Z,1002.25
2022-08-25T23:11:23.392Z,1002.23
2022-08-25T23:13:56.392Z,1002.21
2022-08-25T23:16:29.440Z,1002.21
2022-08-25T23:19:02.364Z,1002.21
2022-08-25T23:21:40.785Z,1002.19
2022-08-25T23:24:08.327Z,1002.19
2022-08-25T23:26:42.403Z,1002.19
2022-08-25T23:29:17.790Z,1002.18
2022-08-25T23:31:47.686Z,1002.18
2022-08-25T23:34:20.344Z,1002.18
2022-08-25T23:36:53.419Z,1002.16
2022-08-25T23:39:26.419Z,1002.14
2022-08-25T23:41:59.363Z,1002.12
2022-08-25T23:44:32.428Z,1002.11
2022-08-25T23:47:05.461Z,1002.10
2022-08-25T23:49:38.407Z,1002.09
2022-08-25T23:52:11.442Z,1002.08
2022-08-25T23:54:44.465Z,1002.08
2022-08-25T23:57:17.429Z,1002.08
2022-08-25T23:59:50.496Z,1002.08
